createdAt,value
2022-12-19T00:05:13.282Z,35.40
2022-12-19T00:15:14.686Z,29.85
2022-12-19T00:25:16.098Z,31.10
2022-12-19T00:35:17.459Z,30.57
2022-12-19T00:45:18.817Z,36.65
2022-12-19T00:55:20.215Z,29.65
2022-12-19T01:05:21.663Z,35.40
2022-12-19T01:15:23.575Z,27.33
2022-12-19T01:25:24.916Z,39.00
2022-12-19T01:35:27.194Z,30.63
2022-12-19T01:45:34.415Z,33.57
2022-12-19T01:55:39.195Z,36.92
2022-12-19T02:05:40.914Z,33.43
2022-12-19T02:16:09.896Z,48.77
2022-12-19T02:26:30.092Z,30.52
2022-12-19T02:36:41.835Z,31.92
2022-12-19T02:46:47.842Z,31.70
2022-12-19T02:57:07.620Z,32.70
2022-12-19T03:07:44.167Z,35.75
2022-12-19T03:17:45.855Z,26.27
2022-12-19T03:27:50.482Z,32.73
2022-12-19T03:37:53.622Z,34.58
2022-12-19T03:48:01.794Z,28.93
2022-12-19T03:58:10.389Z,25.87
2022-12-19T04:08:13.447Z,33.65
2022-12-19T04:18:18.226Z,31.95
2022-12-19T04:28:30.490Z,26.30
2022-12-19T04:38:32.094Z,36.87
2022-12-19T04:48:36.011Z,38.55
2022-12-19T04:58:37.521Z,38.67
2022-12-19T05:08:41.202Z,27.80
2022-12-19T05:18:43.274Z,40.42
2022-12-19T05:28:44.769Z,35.27
2022-12-19T05:38:46.183Z,42.33
2022-12-19T05:48:47.970Z,44.60
2022-12-19T05:58:50.145Z,35.70
2022-12-19T06:08:55.793Z,39.37
2022-12-19T06:18:57.152Z,37.37
2022-12-19T06:28:58.527Z,46.45
2022-12-19T06:38:59.943Z,42.37
2022-12-19T06:49:02.127Z,53.60
2022-12-19T06:59:04.412Z,45.90
2022-12-19T07:09:06.414Z,30.47
2022-12-19T07:19:09.315Z,35.13
2022-12-19T07:29:13.073Z,38.67
2022-12-19T07:39:14.417Z,34.72
2022-12-19T07:49:19.671Z,40.47
2022-12-19T07:59:29.610Z,38.43
2022-12-19T08:09:32.786Z,34.13
2022-12-19T08:19:34.241Z,34.57
2022-12-19T08:29:35.625Z,28.97
2022-12-19T08:39:37.335Z,32.35
2022-12-19T08:49:38.903Z,40.53
2022-12-19T08:59:40.574Z,31.77
2022-12-19T09:09:44.303Z,30.17
2022-12-19T09:19:45.695Z,33.88
2022-12-19T09:29:49.669Z,26.63
2022-12-19T09:39:51.054Z,32.40
2022-12-19T09:50:02.413Z,30.08
2022-12-19T10:00:23.159Z,27.87
2022-12-19T10:12:38.934Z,31.77
2022-12-19T10:21:09.370Z,27.55
2022-12-19T10:31:40.086Z,27.73
2022-12-19T10:41:44.673Z,21.10
2022-12-19T10:52:04.066Z,28.50
2022-12-19T11:02:26.559Z,29.55
2022-12-19T11:16:30.404Z,25.80
2022-12-19T11:29:44.436Z,21.53
2022-12-19T11:33:19.187Z,26.25
2022-12-19T11:43:44.306Z,19.97
2022-12-19T11:54:06.234Z,21.40
2022-12-19T12:04:13.700Z,19.90
2022-12-19T12:26:31.424Z,20.67
2022-12-19T12:32:06.523Z,21.70
2022-12-19T12:45:52.489Z,16.15
2022-12-19T12:56:00.702Z,24.57
2022-12-19T13:06:05.078Z,20.27
2022-12-19T13:16:44.308Z,16.60
2022-12-19T13:26:49.524Z,15.70
2022-12-19T13:39:52.070Z,15.17
2022-12-19T13:47:24.618Z,15.00
2022-12-19T13:57:28.908Z,14.70
2022-12-19T14:07:40.008Z,13.37
2022-12-19T14:17:48.314Z,18.25
2022-12-19T14:28:20.708Z,13.50
2022-12-19T14:39:23.614Z,14.50
2022-12-19T14:53:52.476Z,16.77
2022-12-19T14:59:35.352Z,13.30
2022-12-19T15:11:05.357Z,12.03
2022-12-19T15:20:24.806Z,13.70
2022-12-19T15:30:29.547Z,11.80
2022-12-19T15:40:31.149Z,12.10
2022-12-19T15:50:32.526Z,10.23
2022-12-19T16:00:36.112Z,10.32
2022-12-19T16:10:37.625Z,10.05
2022-12-19T16:20:40.297Z,11.23
2022-12-19T16:30:44.285Z,12.60
2022-12-19T16:40:46.360Z,9.27
2022-12-19T16:50:48.441Z,10.70
2022-12-19T17:00:52.419Z,10.47
2022-12-19T17:10:54.537Z,12.95
2022-12-19T17:20:56.049Z,9.07
2022-12-19T17:31:06.243Z,13.07
2022-12-19T17:41:16.533Z,11.90
2022-12-19T17:51:21.379Z,11.07
2022-12-19T18:01:24.266Z,9.47
2022-12-19T18:11:27.044Z,10.93
2022-12-19T18:21:28.438Z,10.25
2022-12-19T18:31:30.268Z,10.53
2022-12-19T18:41:31.953Z,10.83
2022-12-19T18:51:33.310Z,28.73
2022-12-19T19:01:39.405Z,12.43
2022-12-19T19:11:40.989Z,16.37
2022-12-19T19:21:42.568Z,15.80
2022-12-19T19:31:47.183Z,10.70
2022-12-19T19:41:48.752Z,11.30
2022-12-19T19:51:50.595Z,11.93
2022-12-19T20:01:54.258Z,9.02
2022-12-19T20:11:56.784Z,10.17
2022-12-19T20:22:00.133Z,10.10
2022-12-19T20:32:01.527Z,10.10
2022-12-19T20:42:02.885Z,9.20
2022-12-19T20:52:04.366Z,8.93
2022-12-19T21:02:05.842Z,10.23
2022-12-19T21:12:07.343Z,8.00
2022-12-19T21:22:08.721Z,6.00
2022-12-19T21:32:14.982Z,9.53
2022-12-19T21:42:20.011Z,8.68
2022-12-19T21:52:21.382Z,8.53
2022-12-19T22:02:22.939Z,9.37
2022-12-19T22:12:24.360Z,7.15
2022-12-19T22:22:27.151Z,6.90
2022-12-19T22:32:29.677Z,7.00
2022-12-19T22:42:31.070Z,7.82
2022-12-19T22:52:32.420Z,7.00
2022-12-19T23:02:33.942Z,7.07
2022-12-19T23:12:35.446Z,7.27
2022-12-19T23:22:36.882Z,8.13
2022-12-19T23:32:38.495Z,10.53
2022-12-19T23:42:39.835Z,6.37
2022-12-19T23:52:41.881Z,7.20
